Muir Army Air Field (Fort Indiantown Gap) Airport
KMUI : now visible

Airfield :











YOU CAN JOIN US ON...

 
LOGIN :

Register | Disclaimer

   EN    FR    IT 

 









Legend :    VFR   Marginal VFR   IFR   Intensive IFR   Very Intensive IFR
Visi :
Ceiling :
>= 8 km
>= 3000ft
5 to 8 km
1000 to 3000 ft
1500m to 5 km
500 to 1000 ft
800 to 1500m
200 to 500 ft
< 800m
< 200 ft
Symbols :   Thunderstorms  Fog  Heavy snow  Heavy precipitations  Wind > 20 kt






- Airport Elevation : 488 ft


KMUI - Muir Army Air Field (Fort Indiantown Gap)

CURRENT METAR :
  • 271656Z AUTO 27009G16KT 10SM FEW028 OVC080 05/M02 A2974 RMK AO2 SLP077 T00501019

EXPIRED METARs :
  • 271556Z AUTO 25014KT 10SM SCT029 OVC080 05/M02 A2975 RMK AO2 SLP081 T00461018
  • 271456Z AUTO 27008KT 10SM OVC080 04/M02 A2975 RMK AO2 SLP081 60000 T00411017 53003

TAF TAF KMUI
Valid from the 27 at 11:00 until the 28 at 17:00 UTC


271100Z 2711/2817 25006KT 9999 OVC030 QNH2974INS
BECMG 2715/2717 27012G18KT 9999 BKN025 620258 QNH2975INS
BECMG 2722/2723 30009KT 9999 BKN025 620258 QNH2973INS TX04/2719Z TN00/2808Z



MET'MAP, your aeronautical weather chart ! - Copyright ORBIFLY December 2007 - Disclaimer

ORBIFLY MET'MAP TEAM :

Programming & Development : Alexandra Zaïnal
Concept & original design : Baudouin d'Aumeries
Assistance for programming : Marc-Olivier Méhu
Technical & hardware support : Manuel Goepfert

Contact : metmap@orbifly.com




SOURCES & CREDITS :

   NOAA       Earth
Advisory